sensor_id;sensor_type;location;lat;lon;timestamp;P1;durP1;ratioP1;P2;durP2;ratioP2
29816;SDS011;16805;52.956;5.906;2022-08-01T00:01:12;1.60;;;1.50;;
29816;SDS011;16805;52.956;5.906;2022-08-01T00:03:38;4.25;;;1.70;;
29816;SDS011;16805;52.956;5.906;2022-08-01T00:06:04;3.42;;;1.42;;
29816;SDS011;16805;52.956;5.906;2022-08-01T00:08:30;1.77;;;1.30;;
29816;SDS011;16805;52.956;5.906;2022-08-01T00:10:56;2.15;;;1.52;;
29816;SDS011;16805;52.956;5.906;2022-08-01T00:13:21;2.78;;;1.90;;
29816;SDS011;16805;52.956;5.906;2022-08-01T00:15:47;2.42;;;1.80;;
29816;SDS011;16805;52.956;5.906;2022-08-01T00:18:12;2.42;;;1.80;;
29816;SDS011;16805;52.956;5.906;2022-08-01T00:20:38;2.88;;;2.42;;
29816;SDS011;16805;52.956;5.906;2022-08-01T00:23:04;3.35;;;2.22;;
29816;SDS011;16805;52.956;5.906;2022-08-01T00:25:30;2.60;;;2.35;;
29816;SDS011;16805;52.956;5.906;2022-08-01T00:27:55;4.53;;;2.15;;
29816;SDS011;16805;52.956;5.906;2022-08-01T00:30:21;2.50;;;2.30;;
29816;SDS011;16805;52.956;5.906;2022-08-01T00:32:46;2.05;;;1.83;;
29816;SDS011;16805;52.956;5.906;2022-08-01T00:35:12;3.05;;;2.38;;
29816;SDS011;16805;52.956;5.906;2022-08-01T00:37:38;4.15;;;2.17;;
29816;SDS011;16805;52.956;5.906;2022-08-01T00:40:04;2.40;;;1.92;;
29816;SDS011;16805;52.956;5.906;2022-08-01T00:42:30;2.63;;;1.90;;
29816;SDS011;16805;52.956;5.906;2022-08-01T00:44:56;2.60;;;2.00;;
29816;SDS011;16805;52.956;5.906;2022-08-01T00:47:21;2.28;;;1.90;;
29816;SDS011;16805;52.956;5.906;2022-08-01T00:49:47;2.03;;;1.70;;
29816;SDS011;16805;52.956;5.906;2022-08-01T00:52:13;1.98;;;1.58;;
29816;SDS011;16805;52.956;5.906;2022-08-01T00:54:38;1.45;;;1.35;;
29816;SDS011;16805;52.956;5.906;2022-08-01T00:57:04;2.42;;;1.38;;
29816;SDS011;16805;52.956;5.906;2022-08-01T00:59:30;2.03;;;1.23;;
29816;SDS011;16805;52.956;5.906;2022-08-01T01:01:56;1.42;;;1.20;;
29816;SDS011;16805;52.956;5.906;2022-08-01T01:04:22;1.17;;;1.00;;
29816;SDS011;16805;52.956;5.906;2022-08-01T01:06:51;1.63;;;1.17;;
29816;SDS011;16805;52.956;5.906;2022-08-01T01:17:57;1.80;;;1.60;;
29816;SDS011;16805;52.956;5.906;2022-08-01T01:20:28;2.70;;;1.50;;
29816;SDS011;16805;52.956;5.906;2022-08-01T01:23:10;4.03;;;1.90;;
29816;SDS011;16805;52.956;5.906;2022-08-01T01:30:58;3.53;;;2.00;;
29816;SDS011;16805;52.956;5.906;2022-08-01T01:33:26;2.75;;;1.88;;
29816;SDS011;16805;52.956;5.906;2022-08-01T01:35:59;7.10;;;2.72;;
29816;SDS011;16805;52.956;5.906;2022-08-01T01:38:32;5.20;;;2.35;;
29816;SDS011;16805;52.956;5.906;2022-08-01T01:41:01;6.28;;;2.08;;
29816;SDS011;16805;52.956;5.906;2022-08-01T01:43:29;2.97;;;1.80;;
29816;SDS011;16805;52.956;5.906;2022-08-01T01:45:55;4.82;;;1.85;;
29816;SDS011;16805;52.956;5.906;2022-08-01T01:48:22;7.10;;;2.40;;
29816;SDS011;16805;52.956;5.906;2022-08-01T01:50:49;4.88;;;2.00;;
29816;SDS011;16805;52.956;5.906;2022-08-01T01:53:18;4.30;;;2.05;;
29816;SDS011;16805;52.956;5.906;2022-08-01T01:55:46;3.90;;;2.00;;
29816;SDS011;16805;52.956;5.906;2022-08-01T01:58:14;4.00;;;1.70;;
29816;SDS011;16805;52.956;5.906;2022-08-01T02:00:42;3.40;;;2.08;;
29816;SDS011;16805;52.956;5.906;2022-08-01T02:03:11;3.53;;;1.60;;
29816;SDS011;16805;52.956;5.906;2022-08-01T02:05:37;4.28;;;1.67;;
29816;SDS011;16805;52.956;5.906;2022-08-01T02:08:04;1.48;;;1.08;;
29816;SDS011;16805;52.956;5.906;2022-08-01T02:10:31;2.28;;;1.50;;
29816;SDS011;16805;52.956;5.906;2022-08-01T02:12:59;4.55;;;1.23;;
29816;SDS011;16805;52.956;5.906;2022-08-01T02:15:28;5.32;;;1.60;;
29816;SDS011;16805;52.956;5.906;2022-08-01T02:17:56;2.67;;;1.27;;
29816;SDS011;16805;52.956;5.906;2022-08-01T02:20:22;1.48;;;1.00;;
29816;SDS011;16805;52.956;5.906;2022-08-01T02:22:50;3.00;;;1.40;;
29816;SDS011;16805;52.956;5.906;2022-08-01T02:25:25;1.90;;;1.30;;
29816;SDS011;16805;52.956;5.906;2022-08-01T02:30:30;3.72;;;1.25;;
29816;SDS011;16805;52.956;5.906;2022-08-01T02:32:59;2.83;;;1.23;;
29816;SDS011;16805;52.956;5.906;2022-08-01T02:35:32;1.67;;;1.07;;
29816;SDS011;16805;52.956;5.906;2022-08-01T02:38:01;5.07;;;1.73;;
29816;SDS011;16805;52.956;5.906;2022-08-01T02:40:31;3.42;;;1.23;;
29816;SDS011;16805;52.956;5.906;2022-08-01T02:42:59;2.17;;;1.20;;
29816;SDS011;16805;52.956;5.906;2022-08-01T02:45:28;2.47;;;1.10;;
29816;SDS011;16805;52.956;5.906;2022-08-01T02:47:58;2.60;;;1.40;;
29816;SDS011;16805;52.956;5.906;2022-08-01T02:50:26;4.00;;;1.38;;
29816;SDS011;16805;52.956;5.906;2022-08-01T02:52:54;2.05;;;1.00;;
29816;SDS011;16805;52.956;5.906;2022-08-01T02:55:22;2.75;;;1.00;;
29816;SDS011;16805;52.956;5.906;2022-08-01T02:57:48;2.83;;;1.15;;
29816;SDS011;16805;52.956;5.906;2022-08-01T03:00:16;6.03;;;1.35;;
29816;SDS011;16805;52.956;5.906;2022-08-01T03:02:42;3.60;;;1.10;;
29816;SDS011;16805;52.956;5.906;2022-08-01T03:05:10;3.30;;;2.28;;
29816;SDS011;16805;52.956;5.906;2022-08-01T03:07:37;4.97;;;1.25;;
29816;SDS011;16805;52.956;5.906;2022-08-01T03:10:04;4.78;;;1.10;;
29816;SDS011;16805;52.956;5.906;2022-08-01T03:12:31;3.38;;;1.10;;
29816;SDS011;16805;52.956;5.906;2022-08-01T03:14:58;4.22;;;1.50;;
29816;SDS011;16805;52.956;5.906;2022-08-01T03:17:26;3.53;;;1.45;;
29816;SDS011;16805;52.956;5.906;2022-08-01T03:19:53;4.07;;;1.35;;
29816;SDS011;16805;52.956;5.906;2022-08-01T03:22:21;8.15;;;1.20;;
29816;SDS011;16805;52.956;5.906;2022-08-01T03:24:51;8.25;;;1.30;;
29816;SDS011;16805;52.956;5.906;2022-08-01T03:27:19;4.05;;;1.13;;
29816;SDS011;16805;52.956;5.906;2022-08-01T03:29:47;8.00;;;1.15;;
29816;SDS011;16805;52.956;5.906;2022-08-01T03:32:14;4.28;;;1.13;;
29816;SDS011;16805;52.956;5.906;2022-08-01T03:34:41;2.58;;;1.20;;
29816;SDS011;16805;52.956;5.906;2022-08-01T03:37:24;3.10;;;1.00;;
29816;SDS011;16805;52.956;5.906;2022-08-01T03:40:23;6.15;;;1.25;;
29816;SDS011;16805;52.956;5.906;2022-08-01T03:42:54;3.45;;;1.45;;
29816;SDS011;16805;52.956;5.906;2022-08-01T03:45:30;5.88;;;1.13;;
29816;SDS011;16805;52.956;5.906;2022-08-01T03:48:00;8.52;;;1.20;;
29816;SDS011;16805;52.956;5.906;2022-08-01T03:50:30;4.85;;;1.35;;
29816;SDS011;16805;52.956;5.906;2022-08-01T03:52:59;7.40;;;1.50;;
29816;SDS011;16805;52.956;5.906;2022-08-01T03:55:27;4.80;;;1.38;;
29816;SDS011;16805;52.956;5.906;2022-08-01T03:57:54;7.18;;;1.40;;
29816;SDS011;16805;52.956;5.906;2022-08-01T04:00:21;7.05;;;1.27;;
29816;SDS011;16805;52.956;5.906;2022-08-01T04:02:49;6.38;;;1.40;;
29816;SDS011;16805;52.956;5.906;2022-08-01T04:05:16;3.83;;;1.20;;
29816;SDS011;16805;52.956;5.906;2022-08-01T04:07:49;4.80;;;1.58;;
29816;SDS011;16805;52.956;5.906;2022-08-01T04:10:20;3.60;;;1.25;;
29816;SDS011;16805;52.956;5.906;2022-08-01T04:12:47;6.28;;;2.10;;
29816;SDS011;16805;52.956;5.906;2022-08-01T04:15:13;5.88;;;1.52;;
29816;SDS011;16805;52.956;5.906;2022-08-01T04:17:39;9.60;;;1.90;;
29816;SDS011;16805;52.956;5.906;2022-08-01T04:20:05;5.28;;;1.60;;
29816;SDS011;16805;52.956;5.906;2022-08-01T04:22:31;6.72;;;1.52;;
29816;SDS011;16805;52.956;5.906;2022-08-01T04:24:57;7.07;;;1.90;;
29816;SDS011;16805;52.956;5.906;2022-08-01T04:27:31;6.13;;;2.20;;
29816;SDS011;16805;52.956;5.906;2022-08-01T04:30:00;7.22;;;2.00;;
29816;SDS011;16805;52.956;5.906;2022-08-01T04:32:27;8.73;;;2.65;;
29816;SDS011;16805;52.956;5.906;2022-08-01T04:34:56;7.28;;;2.22;;
29816;SDS011;16805;52.956;5.906;2022-08-01T04:37:24;15.20;;;3.00;;
29816;SDS011;16805;52.956;5.906;2022-08-01T04:39:52;15.18;;;3.38;;
29816;SDS011;16805;52.956;5.906;2022-08-01T04:42:21;14.30;;;3.65;;
29816;SDS011;16805;52.956;5.906;2022-08-01T04:44:47;12.70;;;2.42;;
29816;SDS011;16805;52.956;5.906;2022-08-01T04:47:12;11.18;;;2.10;;
29816;SDS011;16805;52.956;5.906;2022-08-01T04:49:39;5.57;;;1.75;;
29816;SDS011;16805;52.956;5.906;2022-08-01T04:52:05;6.57;;;1.90;;
29816;SDS011;16805;52.956;5.906;2022-08-01T04:54:33;6.65;;;2.30;;
29816;SDS011;16805;52.956;5.906;2022-08-01T04:57:02;11.35;;;2.00;;
29816;SDS011;16805;52.956;5.906;2022-08-01T04:59:29;11.18;;;2.45;;
29816;SDS011;16805;52.956;5.906;2022-08-01T05:02:04;9.15;;;2.20;;
29816;SDS011;16805;52.956;5.906;2022-08-01T05:04:59;9.95;;;2.63;;
29816;SDS011;16805;52.956;5.906;2022-08-01T05:07:25;13.15;;;3.67;;
29816;SDS011;16805;52.956;5.906;2022-08-01T05:09:50;10.30;;;2.20;;
29816;SDS011;16805;52.956;5.906;2022-08-01T05:12:16;7.32;;;2.10;;
29816;SDS011;16805;52.956;5.906;2022-08-01T05:14:42;8.95;;;2.10;;
29816;SDS011;16805;52.956;5.906;2022-08-01T05:17:08;11.38;;;1.98;;
29816;SDS011;16805;52.956;5.906;2022-08-01T05:19:35;12.80;;;1.80;;
29816;SDS011;16805;52.956;5.906;2022-08-01T05:22:02;7.00;;;1.48;;
29816;SDS011;16805;52.956;5.906;2022-08-01T05:24:30;7.60;;;1.90;;
29816;SDS011;16805;52.956;5.906;2022-08-01T05:26:56;9.55;;;1.52;;
29816;SDS011;16805;52.956;5.906;2022-08-01T05:29:23;8.88;;;1.98;;
29816;SDS011;16805;52.956;5.906;2022-08-01T05:31:49;7.72;;;1.67;;
29816;SDS011;16805;52.956;5.906;2022-08-01T05:34:15;7.43;;;1.20;;
29816;SDS011;16805;52.956;5.906;2022-08-01T05:36:41;9.13;;;1.65;;
29816;SDS011;16805;52.956;5.906;2022-08-01T05:39:07;8.82;;;1.27;;
29816;SDS011;16805;52.956;5.906;2022-08-01T05:41:32;8.73;;;1.60;;
29816;SDS011;16805;52.956;5.906;2022-08-01T05:43:58;6.85;;;1.60;;
29816;SDS011;16805;52.956;5.906;2022-08-01T05:46:24;11.43;;;1.40;;
29816;SDS011;16805;52.956;5.906;2022-08-01T05:48:50;9.52;;;1.85;;
29816;SDS011;16805;52.956;5.906;2022-08-01T05:51:15;9.70;;;1.50;;
29816;SDS011;16805;52.956;5.906;2022-08-01T05:53:41;10.63;;;2.00;;
29816;SDS011;16805;52.956;5.906;2022-08-01T05:56:06;9.88;;;1.27;;
29816;SDS011;16805;52.956;5.906;2022-08-01T05:58:32;8.32;;;1.35;;
29816;SDS011;16805;52.956;5.906;2022-08-01T06:00:58;14.05;;;2.35;;
29816;SDS011;16805;52.956;5.906;2022-08-01T06:03:24;8.15;;;1.80;;
29816;SDS011;16805;52.956;5.906;2022-08-01T06:05:51;9.68;;;1.52;;
29816;SDS011;16805;52.956;5.906;2022-08-01T06:08:17;11.15;;;1.48;;
29816;SDS011;16805;52.956;5.906;2022-08-01T06:10:43;7.18;;;1.27;;
29816;SDS011;16805;52.956;5.906;2022-08-01T06:13:08;12.88;;;3.65;;
29816;SDS011;16805;52.956;5.906;2022-08-01T06:15:34;8.00;;;1.70;;
29816;SDS011;16805;52.956;5.906;2022-08-01T06:18:00;9.48;;;1.40;;
29816;SDS011;16805;52.956;5.906;2022-08-01T06:20:25;6.10;;;1.30;;
29816;SDS011;16805;52.956;5.906;2022-08-01T06:22:51;5.13;;;1.00;;
29816;SDS011;16805;52.956;5.906;2022-08-01T06:25:17;11.73;;;1.75;;
29816;SDS011;16805;52.956;5.906;2022-08-01T06:27:44;9.70;;;1.98;;
29816;SDS011;16805;52.956;5.906;2022-08-01T06:30:09;8.68;;;1.58;;
29816;SDS011;16805;52.956;5.906;2022-08-01T06:32:35;7.88;;;1.92;;
29816;SDS011;16805;52.956;5.906;2022-08-01T06:35:01;9.00;;;2.38;;
29816;SDS011;16805;52.956;5.906;2022-08-01T06:37:31;11.27;;;1.50;;
29816;SDS011;16805;52.956;5.906;2022-08-01T06:40:30;12.25;;;1.65;;
29816;SDS011;16805;52.956;5.906;2022-08-01T06:42:49;7.38;;;2.65;;
29816;SDS011;16805;52.956;5.906;2022-08-01T06:45:15;9.05;;;1.60;;
29816;SDS011;16805;52.956;5.906;2022-08-01T06:47:42;9.23;;;1.30;;
29816;SDS011;16805;52.956;5.906;2022-08-01T06:50:09;8.90;;;1.20;;
29816;SDS011;16805;52.956;5.906;2022-08-01T06:52:35;14.15;;;1.63;;
29816;SDS011;16805;52.956;5.906;2022-08-01T06:55:02;5.35;;;1.27;;
29816;SDS011;16805;52.956;5.906;2022-08-01T06:57:28;9.75;;;1.42;;
29816;SDS011;16805;52.956;5.906;2022-08-01T06:59:54;12.00;;;2.30;;
29816;SDS011;16805;52.956;5.906;2022-08-01T07:02:20;7.72;;;1.70;;
29816;SDS011;16805;52.956;5.906;2022-08-01T07:04:46;6.85;;;1.30;;
29816;SDS011;16805;52.956;5.906;2022-08-01T07:07:12;6.25;;;1.73;;
29816;SDS011;16805;52.956;5.906;2022-08-01T07:09:38;13.13;;;3.03;;
29816;SDS011;16805;52.956;5.906;2022-08-01T07:12:06;11.68;;;1.80;;
29816;SDS011;16805;52.956;5.906;2022-08-01T07:14:32;12.55;;;1.80;;
29816;SDS011;16805;52.956;5.906;2022-08-01T07:16:57;7.88;;;1.77;;
29816;SDS011;16805;52.956;5.906;2022-08-01T07:19:23;13.07;;;2.17;;
29816;SDS011;16805;52.956;5.906;2022-08-01T07:21:49;15.90;;;1.70;;
29816;SDS011;16805;52.956;5.906;2022-08-01T07:24:14;16.73;;;1.52;;
29816;SDS011;16805;52.956;5.906;2022-08-01T07:26:44;9.32;;;1.20;;
29816;SDS011;16805;52.956;5.906;2022-08-01T07:29:11;8.20;;;2.10;;
29816;SDS011;16805;52.956;5.906;2022-08-01T07:31:37;8.15;;;1.52;;
29816;SDS011;16805;52.956;5.906;2022-08-01T07:34:03;13.70;;;1.65;;
29816;SDS011;16805;52.956;5.906;2022-08-01T07:36:29;11.73;;;1.33;;
29816;SDS011;16805;52.956;5.906;2022-08-01T07:38:54;10.30;;;1.45;;
29816;SDS011;16805;52.956;5.906;2022-08-01T07:41:20;13.00;;;1.75;;
29816;SDS011;16805;52.956;5.906;2022-08-01T07:43:46;12.35;;;2.13;;
29816;SDS011;16805;52.956;5.906;2022-08-01T07:46:30;11.85;;;1.73;;
29816;SDS011;16805;52.956;5.906;2022-08-01T07:48:56;6.43;;;1.17;;
29816;SDS011;16805;52.956;5.906;2022-08-01T07:51:22;9.65;;;1.50;;
29816;SDS011;16805;52.956;5.906;2022-08-01T07:53:47;6.82;;;1.75;;
29816;SDS011;16805;52.956;5.906;2022-08-01T07:56:13;7.18;;;2.50;;
29816;SDS011;16805;52.956;5.906;2022-08-01T07:58:39;7.35;;;1.40;;
29816;SDS011;16805;52.956;5.906;2022-08-01T08:01:23;13.75;;;1.27;;
29816;SDS011;16805;52.956;5.906;2022-08-01T08:03:49;6.05;;;1.17;;
29816;SDS011;16805;52.956;5.906;2022-08-01T08:06:14;10.90;;;1.38;;
29816;SDS011;16805;52.956;5.906;2022-08-01T08:08:40;6.57;;;2.13;;
29816;SDS011;16805;52.956;5.906;2022-08-01T08:11:05;7.72;;;1.33;;
29816;SDS011;16805;52.956;5.906;2022-08-01T08:13:31;10.18;;;1.58;;
29816;SDS011;16805;52.956;5.906;2022-08-01T08:15:57;5.32;;;1.23;;
29816;SDS011;16805;52.956;5.906;2022-08-01T08:18:23;10.13;;;1.38;;
29816;SDS011;16805;52.956;5.906;2022-08-01T08:20:49;5.50;;;0.88;;
29816;SDS011;16805;52.956;5.906;2022-08-01T08:23:15;7.32;;;1.40;;
29816;SDS011;16805;52.956;5.906;2022-08-01T08:25:59;7.60;;;1.60;;
29816;SDS011;16805;52.956;5.906;2022-08-01T08:28:25;7.20;;;1.00;;
29816;SDS011;16805;52.956;5.906;2022-08-01T08:30:50;5.82;;;1.13;;
29816;SDS011;16805;52.956;5.906;2022-08-01T08:33:17;6.35;;;1.10;;
29816;SDS011;16805;52.956;5.906;2022-08-01T08:35:43;5.53;;;0.95;;
29816;SDS011;16805;52.956;5.906;2022-08-01T08:38:09;5.75;;;1.13;;
29816;SDS011;16805;52.956;5.906;2022-08-01T08:40:35;6.78;;;1.55;;
29816;SDS011;16805;52.956;5.906;2022-08-01T08:43:01;11.20;;;1.20;;
29816;SDS011;16805;52.956;5.906;2022-08-01T08:45:30;7.07;;;1.00;;
29816;SDS011;16805;52.956;5.906;2022-08-01T08:47:57;4.47;;;0.90;;
29816;SDS011;16805;52.956;5.906;2022-08-01T08:50:23;6.97;;;1.05;;
29816;SDS011;16805;52.956;5.906;2022-08-01T08:52:50;8.48;;;1.38;;
29816;SDS011;16805;52.956;5.906;2022-08-01T08:55:19;7.45;;;1.30;;
29816;SDS011;16805;52.956;5.906;2022-08-01T08:57:45;7.05;;;1.00;;
29816;SDS011;16805;52.956;5.906;2022-08-01T09:00:12;4.07;;;0.70;;
29816;SDS011;16805;52.956;5.906;2022-08-01T09:02:43;5.88;;;0.88;;
29816;SDS011;16805;52.956;5.906;2022-08-01T09:05:10;9.60;;;1.00;;
29816;SDS011;16805;52.956;5.906;2022-08-01T09:07:36;14.07;;;1.38;;
29816;SDS011;16805;52.956;5.906;2022-08-01T09:10:02;4.53;;;0.80;;
29816;SDS011;16805;52.956;5.906;2022-08-01T09:12:29;6.78;;;1.10;;
29816;SDS011;16805;52.956;5.906;2022-08-01T09:14:55;7.78;;;1.73;;
29816;SDS011;16805;52.956;5.906;2022-08-01T09:17:20;4.82;;;0.80;;
29816;SDS011;16805;52.956;5.906;2022-08-01T09:19:53;3.72;;;0.70;;
29816;SDS011;16805;52.956;5.906;2022-08-01T09:22:22;2.78;;;0.90;;
29816;SDS011;16805;52.956;5.906;2022-08-01T09:25:08;3.90;;;0.63;;
29816;SDS011;16805;52.956;5.906;2022-08-01T09:27:36;5.13;;;0.80;;
29816;SDS011;16805;52.956;5.906;2022-08-01T09:32:43;7.55;;;0.90;;
29816;SDS011;16805;52.956;5.906;2022-08-01T09:35:26;3.58;;;0.93;;
29816;SDS011;16805;52.956;5.906;2022-08-01T09:43:17;5.50;;;0.88;;
29816;SDS011;16805;52.956;5.906;2022-08-01T09:45:44;9.63;;;0.90;;
29816;SDS011;16805;52.956;5.906;2022-08-01T09:48:10;5.68;;;1.20;;
29816;SDS011;16805;52.956;5.906;2022-08-01T09:50:41;4.53;;;1.52;;
29816;SDS011;16805;52.956;5.906;2022-08-01T09:53:08;2.70;;;0.70;;
29816;SDS011;16805;52.956;5.906;2022-08-01T09:55:34;5.15;;;0.90;;
29816;SDS011;16805;52.956;5.906;2022-08-01T09:58:00;4.13;;;1.00;;
29816;SDS011;16805;52.956;5.906;2022-08-01T10:00:26;3.60;;;0.75;;
29816;SDS011;16805;52.956;5.906;2022-08-01T10:02:52;6.72;;;1.00;;
29816;SDS011;16805;52.956;5.906;2022-08-01T10:05:18;9.38;;;0.85;;
29816;SDS011;16805;52.956;5.906;2022-08-01T10:08:02;3.03;;;0.65;;
29816;SDS011;16805;52.956;5.906;2022-08-01T10:10:30;3.08;;;1.48;;
29816;SDS011;16805;52.956;5.906;2022-08-01T10:12:59;2.85;;;0.70;;
29816;SDS011;16805;52.956;5.906;2022-08-01T10:15:25;3.50;;;0.60;;
29816;SDS011;16805;52.956;5.906;2022-08-01T10:17:55;2.97;;;0.45;;
29816;SDS011;16805;52.956;5.906;2022-08-01T10:20:41;3.77;;;0.90;;
29816;SDS011;16805;52.956;5.906;2022-08-01T10:23:30;5.57;;;0.60;;
29816;SDS011;16805;52.956;5.906;2022-08-01T10:26:00;3.50;;;0.60;;
29816;SDS011;16805;52.956;5.906;2022-08-01T10:28:28;4.28;;;0.50;;
29816;SDS011;16805;52.956;5.906;2022-08-01T10:30:56;4.45;;;0.80;;
29816;SDS011;16805;52.956;5.906;2022-08-01T10:33:23;4.80;;;0.60;;
29816;SDS011;16805;52.956;5.906;2022-08-01T10:35:49;10.23;;;1.70;;
29816;SDS011;16805;52.956;5.906;2022-08-01T10:38:16;6.28;;;0.60;;
29816;SDS011;16805;52.956;5.906;2022-08-01T10:40:42;3.75;;;0.95;;
29816;SDS011;16805;52.956;5.906;2022-08-01T10:43:09;3.90;;;0.80;;
29816;SDS011;16805;52.956;5.906;2022-08-01T10:45:35;5.50;;;0.73;;
29816;SDS011;16805;52.956;5.906;2022-08-01T10:50:52;3.53;;;0.50;;
29816;SDS011;16805;52.956;5.906;2022-08-01T10:53:20;2.72;;;0.50;;
29816;SDS011;16805;52.956;5.906;2022-08-01T10:58:24;4.03;;;0.70;;
29816;SDS011;16805;52.956;5.906;2022-08-01T11:03:43;2.67;;;1.30;;
29816;SDS011;16805;52.956;5.906;2022-08-01T11:06:20;3.45;;;0.50;;
29816;SDS011;16805;52.956;5.906;2022-08-01T11:14:22;5.72;;;0.95;;
29816;SDS011;16805;52.956;5.906;2022-08-01T11:16:47;1.70;;;0.50;;
29816;SDS011;16805;52.956;5.906;2022-08-01T11:19:13;4.38;;;0.80;;
29816;SDS011;16805;52.956;5.906;2022-08-01T11:32:54;3.75;;;1.75;;
29816;SDS011;16805;52.956;5.906;2022-08-01T11:35:23;4.88;;;1.05;;
29816;SDS011;16805;52.956;5.906;2022-08-01T11:37:51;3.40;;;0.88;;
29816;SDS011;16805;52.956;5.906;2022-08-01T11:45:46;4.10;;;0.60;;
29816;SDS011;16805;52.956;5.906;2022-08-01T11:48:19;2.35;;;0.60;;
29816;SDS011;16805;52.956;5.906;2022-08-01T11:50:58;2.45;;;0.93;;
29816;SDS011;16805;52.956;5.906;2022-08-01T11:53:23;5.13;;;0.70;;
29816;SDS011;16805;52.956;5.906;2022-08-01T11:55:50;3.65;;;0.60;;
29816;SDS011;16805;52.956;5.906;2022-08-01T11:58:23;3.92;;;0.95;;
29816;SDS011;16805;52.956;5.906;2022-08-01T12:00:51;2.67;;;0.50;;
29816;SDS011;16805;52.956;5.906;2022-08-01T12:03:29;5.18;;;0.70;;
29816;SDS011;16805;52.956;5.906;2022-08-01T12:05:57;2.15;;;0.50;;
29816;SDS011;16805;52.956;5.906;2022-08-01T12:08:27;6.88;;;0.98;;
29816;SDS011;16805;52.956;5.906;2022-08-01T12:10:54;8.70;;;0.80;;
29816;SDS011;16805;52.956;5.906;2022-08-01T12:13:20;6.07;;;0.40;;
29816;SDS011;16805;52.956;5.906;2022-08-01T12:15:46;4.97;;;0.60;;
29816;SDS011;16805;52.956;5.906;2022-08-01T12:18:12;3.80;;;0.63;;
29816;SDS011;16805;52.956;5.906;2022-08-01T12:20:39;2.38;;;0.40;;
29816;SDS011;16805;52.956;5.906;2022-08-01T12:23:08;3.75;;;1.15;;
29816;SDS011;16805;52.956;5.906;2022-08-01T12:25:35;3.63;;;0.60;;
29816;SDS011;16805;52.956;5.906;2022-08-01T12:28:02;9.80;;;0.75;;
29816;SDS011;16805;52.956;5.906;2022-08-01T12:30:30;4.88;;;1.48;;
29816;SDS011;16805;52.956;5.906;2022-08-01T12:32:59;3.13;;;0.50;;
29816;SDS011;16805;52.956;5.906;2022-08-01T12:35:26;9.40;;;1.08;;
29816;SDS011;16805;52.956;5.906;2022-08-01T12:37:54;4.20;;;0.65;;
29816;SDS011;16805;52.956;5.906;2022-08-01T12:40:23;3.85;;;0.47;;
29816;SDS011;16805;52.956;5.906;2022-08-01T12:42:54;2.90;;;0.70;;
29816;SDS011;16805;52.956;5.906;2022-08-01T12:45:23;4.85;;;0.75;;
29816;SDS011;16805;52.956;5.906;2022-08-01T12:47:54;4.10;;;0.40;;
29816;SDS011;16805;52.956;5.906;2022-08-01T12:50:23;1.75;;;0.50;;
29816;SDS011;16805;52.956;5.906;2022-08-01T12:52:53;3.65;;;1.00;;
29816;SDS011;16805;52.956;5.906;2022-08-01T12:55:20;3.17;;;0.50;;
29816;SDS011;16805;52.956;5.906;2022-08-01T12:58:02;3.03;;;0.57;;
29816;SDS011;16805;52.956;5.906;2022-08-01T13:00:32;7.00;;;0.65;;
29816;SDS011;16805;52.956;5.906;2022-08-01T13:03:06;3.17;;;0.68;;
29816;SDS011;16805;52.956;5.906;2022-08-01T13:05:40;1.40;;;0.43;;
29816;SDS011;16805;52.956;5.906;2022-08-01T13:08:09;2.60;;;0.60;;
29816;SDS011;16805;52.956;5.906;2022-08-01T13:10:36;5.57;;;1.08;;
29816;SDS011;16805;52.956;5.906;2022-08-01T13:13:01;1.55;;;0.50;;
29816;SDS011;16805;52.956;5.906;2022-08-01T13:15:31;1.45;;;0.50;;
29816;SDS011;16805;52.956;5.906;2022-08-01T13:18:00;7.95;;;0.77;;
29816;SDS011;16805;52.956;5.906;2022-08-01T13:20:46;2.90;;;0.50;;
29816;SDS011;16805;52.956;5.906;2022-08-01T13:23:12;3.00;;;0.60;;
29816;SDS011;16805;52.956;5.906;2022-08-01T13:25:49;3.65;;;0.55;;
29816;SDS011;16805;52.956;5.906;2022-08-01T13:28:19;2.03;;;0.45;;
29816;SDS011;16805;52.956;5.906;2022-08-01T13:30:50;1.85;;;0.50;;
29816;SDS011;16805;52.956;5.906;2022-08-01T13:33:17;5.78;;;1.27;;
29816;SDS011;16805;52.956;5.906;2022-08-01T13:35:42;2.80;;;0.43;;
29816;SDS011;16805;52.956;5.906;2022-08-01T13:38:08;2.83;;;0.40;;
29816;SDS011;16805;52.956;5.906;2022-08-01T13:40:33;2.67;;;0.55;;
29816;SDS011;16805;52.956;5.906;2022-08-01T13:42:59;4.60;;;1.25;;
29816;SDS011;16805;52.956;5.906;2022-08-01T13:45:25;5.80;;;0.63;;
29816;SDS011;16805;52.956;5.906;2022-08-01T13:47:50;2.72;;;0.73;;
29816;SDS011;16805;52.956;5.906;2022-08-01T13:50:16;4.63;;;0.63;;
29816;SDS011;16805;52.956;5.906;2022-08-01T13:52:42;3.22;;;0.70;;
29816;SDS011;16805;52.956;5.906;2022-08-01T13:55:07;1.40;;;0.70;;
29816;SDS011;16805;52.956;5.906;2022-08-01T13:57:33;3.28;;;0.60;;
29816;SDS011;16805;52.956;5.906;2022-08-01T13:59:59;2.88;;;0.57;;
29816;SDS011;16805;52.956;5.906;2022-08-01T14:02:25;3.53;;;0.88;;
29816;SDS011;16805;52.956;5.906;2022-08-01T14:04:52;3.97;;;0.60;;
29816;SDS011;16805;52.956;5.906;2022-08-01T14:07:23;2.28;;;0.47;;
29816;SDS011;16805;52.956;5.906;2022-08-01T14:09:49;4.03;;;0.70;;
29816;SDS011;16805;52.956;5.906;2022-08-01T14:12:14;3.08;;;0.50;;
29816;SDS011;16805;52.956;5.906;2022-08-01T14:14:40;3.13;;;0.45;;
29816;SDS011;16805;52.956;5.906;2022-08-01T14:17:06;4.97;;;0.57;;
29816;SDS011;16805;52.956;5.906;2022-08-01T14:19:31;3.00;;;0.77;;
29816;SDS011;16805;52.956;5.906;2022-08-01T14:21:57;4.00;;;1.00;;
29816;SDS011;16805;52.956;5.906;2022-08-01T14:24:23;4.05;;;0.60;;
29816;SDS011;16805;52.956;5.906;2022-08-01T14:26:51;2.13;;;0.50;;
29816;SDS011;16805;52.956;5.906;2022-08-01T14:29:16;2.45;;;0.40;;
29816;SDS011;16805;52.956;5.906;2022-08-01T14:31:42;3.95;;;0.70;;
29816;SDS011;16805;52.956;5.906;2022-08-01T14:34:08;2.47;;;0.50;;
29816;SDS011;16805;52.956;5.906;2022-08-01T14:36:33;3.22;;;0.45;;
29816;SDS011;16805;52.956;5.906;2022-08-01T14:38:59;2.95;;;0.90;;
29816;SDS011;16805;52.956;5.906;2022-08-01T14:41:25;0.63;;;0.40;;
29816;SDS011;16805;52.956;5.906;2022-08-01T14:43:50;2.33;;;0.60;;
29816;SDS011;16805;52.956;5.906;2022-08-01T14:46:16;6.03;;;1.15;;
29816;SDS011;16805;52.956;5.906;2022-08-01T14:48:41;4.60;;;0.70;;
29816;SDS011;16805;52.956;5.906;2022-08-01T14:51:07;2.85;;;0.50;;
29816;SDS011;16805;52.956;5.906;2022-08-01T14:53:33;6.07;;;0.68;;
29816;SDS011;16805;52.956;5.906;2022-08-01T14:56:01;2.38;;;0.57;;
29816;SDS011;16805;52.956;5.906;2022-08-01T14:58:28;1.90;;;0.63;;
29816;SDS011;16805;52.956;5.906;2022-08-01T15:00:53;2.45;;;0.52;;
29816;SDS011;16805;52.956;5.906;2022-08-01T15:03:20;2.65;;;0.50;;
29816;SDS011;16805;52.956;5.906;2022-08-01T15:05:46;3.67;;;1.10;;
29816;SDS011;16805;52.956;5.906;2022-08-01T15:08:11;5.20;;;0.50;;
29816;SDS011;16805;52.956;5.906;2022-08-01T15:10:37;2.53;;;0.57;;
29816;SDS011;16805;52.956;5.906;2022-08-01T15:13:03;2.78;;;0.60;;
29816;SDS011;16805;52.956;5.906;2022-08-01T15:15:28;3.42;;;0.50;;
29816;SDS011;16805;52.956;5.906;2022-08-01T15:17:54;3.55;;;0.60;;
29816;SDS011;16805;52.956;5.906;2022-08-01T15:20:20;3.72;;;0.88;;
29816;SDS011;16805;52.956;5.906;2022-08-01T15:22:46;4.88;;;0.70;;
29816;SDS011;16805;52.956;5.906;2022-08-01T15:25:12;3.05;;;0.70;;
29816;SDS011;16805;52.956;5.906;2022-08-01T15:27:38;3.80;;;0.85;;
29816;SDS011;16805;52.956;5.906;2022-08-01T15:30:04;1.42;;;0.40;;
29816;SDS011;16805;52.956;5.906;2022-08-01T15:32:30;7.30;;;1.77;;
29816;SDS011;16805;52.956;5.906;2022-08-01T15:34:56;3.35;;;0.70;;
29816;SDS011;16805;52.956;5.906;2022-08-01T15:37:21;2.15;;;0.50;;
29816;SDS011;16805;52.956;5.906;2022-08-01T15:39:47;3.47;;;0.60;;
29816;SDS011;16805;52.956;5.906;2022-08-01T15:42:13;2.08;;;0.47;;
29816;SDS011;16805;52.956;5.906;2022-08-01T15:44:41;3.33;;;0.50;;